createdAt,value
2022-10-13T00:01:09.240Z,5.34
2022-10-13T00:04:25.619Z,5.39
2022-10-13T00:07:41.779Z,5.28
2022-10-13T00:11:00.816Z,5.23
2022-10-13T00:14:18.385Z,5.20
2022-10-13T00:17:37.666Z,5.29
2022-10-13T00:20:56.788Z,5.24
2022-10-13T00:24:15.165Z,5.19
2022-10-13T00:27:33.128Z,5.06
2022-10-13T00:30:49.704Z,5.07
2022-10-13T00:34:08.718Z,5.12
2022-10-13T00:37:28.406Z,5.21
2022-10-13T00:40:49.869Z,5.26
2022-10-13T00:44:10.394Z,5.32
2022-10-13T00:47:27.223Z,5.34
2022-10-13T00:50:49.740Z,5.25
2022-10-13T00:54:07.877Z,5.25
2022-10-13T00:57:26.045Z,5.26
2022-10-13T01:00:42.982Z,5.22
2022-10-13T01:04:00.773Z,5.23
2022-10-13T01:07:17.705Z,5.00
2022-10-13T01:10:40.864Z,5.01
2022-10-13T01:14:03.545Z,4.71
2022-10-13T01:17:27.801Z,4.81
2022-10-13T01:21:16.375Z,4.86
2022-10-13T01:24:51.847Z,4.83
2022-10-13T01:28:45.874Z,4.79
2022-10-13T01:32:08.381Z,4.59
2022-10-13T01:35:30.794Z,4.44
2022-10-13T01:38:52.618Z,4.23
2022-10-13T01:42:14.920Z,4.28
2022-10-13T01:45:36.572Z,4.38
2022-10-13T01:48:54.700Z,4.46
2022-10-13T01:52:16.719Z,4.61
2022-10-13T01:55:34.674Z,4.63
2022-10-13T01:58:53.078Z,4.53
2022-10-13T02:02:18.526Z,4.55
2022-10-13T02:05:44.997Z,4.49
2022-10-13T02:09:09.764Z,4.50
2022-10-13T02:12:32.068Z,4.38
2022-10-13T02:15:53.955Z,4.40
2022-10-13T02:19:15.228Z,4.33
2022-10-13T02:22:35.919Z,4.41
2022-10-13T02:25:56.652Z,4.44
2022-10-13T02:29:21.954Z,4.42
2022-10-13T02:32:38.686Z,4.32
2022-10-13T02:35:55.507Z,4.19
2022-10-13T02:39:13.704Z,4.07
2022-10-13T02:42:30.447Z,4.13
2022-10-13T02:45:48.474Z,3.99
2022-10-13T02:49:05.554Z,3.89
2022-10-13T02:52:34.397Z,3.80
2022-10-13T02:55:51.618Z,3.78
2022-10-13T02:59:07.906Z,3.81
2022-10-13T03:02:25.114Z,3.76
2022-10-13T03:05:41.231Z,3.71
2022-10-13T03:08:57.643Z,3.75
2022-10-13T03:12:15.061Z,3.74
2022-10-13T03:15:32.199Z,3.76
2022-10-13T03:18:51.772Z,3.81
2022-10-13T03:22:08.237Z,3.80
2022-10-13T03:25:25.413Z,3.67
2022-10-13T03:28:43.507Z,3.72
2022-10-13T03:32:07.740Z,3.66
2022-10-13T03:35:46.717Z,3.63
2022-10-13T03:39:09.333Z,3.61
2022-10-13T03:42:28.205Z,3.53
2022-10-13T03:45:44.955Z,3.55
2022-10-13T03:49:03.248Z,3.45
2022-10-13T03:52:33.124Z,3.44
2022-10-13T03:55:57.671Z,3.47
2022-10-13T03:59:17.501Z,3.24
2022-10-13T04:02:36.165Z,2.97
2022-10-13T04:05:55.733Z,2.86
2022-10-13T04:09:12.503Z,2.88
2022-10-13T04:12:33.117Z,2.86
2022-10-13T04:15:49.630Z,2.74
2022-10-13T04:19:09.646Z,2.78
2022-10-13T04:22:25.839Z,2.87
2022-10-13T04:25:44.670Z,2.90
2022-10-13T04:29:03.344Z,2.91
2022-10-13T04:32:22.025Z,3.03
2022-10-13T04:35:39.153Z,3.16
2022-10-13T04:38:55.723Z,3.19
2022-10-13T04:42:12.464Z,3.27
2022-10-13T04:45:28.663Z,3.14
2022-10-13T04:48:45.322Z,3.18
2022-10-13T04:52:01.733Z,3.12
2022-10-13T04:55:19.729Z,3.22
2022-10-13T04:58:36.279Z,3.22
2022-10-13T05:01:53.155Z,3.10
2022-10-13T05:05:10.023Z,3.05
2022-10-13T05:08:26.757Z,3.14
2022-10-13T05:11:43.364Z,3.18
2022-10-13T05:14:59.828Z,3.26
2022-10-13T05:18:15.949Z,3.23
2022-10-13T05:21:34.728Z,3.11
2022-10-13T05:24:52.583Z,3.08
2022-10-13T05:28:09.898Z,3.05
2022-10-13T05:31:29.130Z,3.01
2022-10-13T05:34:46.300Z,3.02
2022-10-13T05:38:02.442Z,2.99
2022-10-13T05:41:21.482Z,2.98
2022-10-13T05:44:38.231Z,2.86
2022-10-13T05:47:54.399Z,2.64
2022-10-13T05:51:15.790Z,2.77
2022-10-13T05:54:35.957Z,2.94
2022-10-13T05:57:55.717Z,3.06
2022-10-13T06:01:17.289Z,3.15
2022-10-13T06:04:39.679Z,3.21
2022-10-13T06:07:56.711Z,3.26
2022-10-13T06:11:15.106Z,3.33
2022-10-13T06:14:31.214Z,3.34
2022-10-13T06:17:51.256Z,3.31
2022-10-13T06:21:05.790Z,3.30
2022-10-13T06:24:22.512Z,3.35
2022-10-13T06:27:39.203Z,3.43
2022-10-13T06:30:58.992Z,3.49
2022-10-13T06:34:15.348Z,3.47
2022-10-13T06:37:33.133Z,3.49
2022-10-13T06:40:49.568Z,3.56
2022-10-13T06:44:06.062Z,3.43
2022-10-13T06:47:23.174Z,3.39
2022-10-13T06:50:42.908Z,3.49
2022-10-13T06:54:00.860Z,3.48
2022-10-13T06:57:19.040Z,3.47
2022-10-13T07:00:35.070Z,3.47
2022-10-13T07:03:53.726Z,3.62
2022-10-13T07:07:10.102Z,3.69
2022-10-13T07:10:26.311Z,3.75
2022-10-13T07:13:46.239Z,3.79
2022-10-13T07:17:02.360Z,3.87
2022-10-13T07:20:21.066Z,3.95
2022-10-13T07:23:39.107Z,4.11
2022-10-13T07:26:55.505Z,4.23
2022-10-13T07:30:14.231Z,4.23
2022-10-13T07:33:30.975Z,4.36
2022-10-13T07:36:47.044Z,4.45
2022-10-13T07:40:04.298Z,4.51
2022-10-13T07:43:21.136Z,4.47
2022-10-13T07:46:37.291Z,4.48
2022-10-13T07:49:55.359Z,4.61
2022-10-13T07:53:13.726Z,4.65
2022-10-13T07:56:30.424Z,4.78
2022-10-13T07:59:49.730Z,4.89
2022-10-13T08:03:08.126Z,5.11
2022-10-13T08:06:24.649Z,5.16
2022-10-13T08:09:44.682Z,5.35
2022-10-13T08:13:01.201Z,5.48
2022-10-13T08:16:18.788Z,5.71
2022-10-13T08:19:35.747Z,5.79
2022-10-13T08:22:52.475Z,5.91
2022-10-13T08:26:09.725Z,5.98
2022-10-13T08:29:26.090Z,6.03
2022-10-13T08:32:42.644Z,6.11
2022-10-13T08:35:59.050Z,6.20
2022-10-13T08:39:16.853Z,6.39
2022-10-13T08:42:33.771Z,6.53
2022-10-13T08:45:50.924Z,6.61
2022-10-13T08:49:10.421Z,6.75
2022-10-13T08:52:32.389Z,6.88
2022-10-13T08:55:54.956Z,7.05
2022-10-13T08:59:15.293Z,7.21
2022-10-13T09:02:38.642Z,7.34
2022-10-13T09:06:04.361Z,7.54
2022-10-13T09:09:24.217Z,7.76
2022-10-13T09:12:40.282Z,7.99
2022-10-13T09:15:58.826Z,8.24
2022-10-13T09:19:35.022Z,8.55
2022-10-13T09:22:53.188Z,8.84
2022-10-13T09:26:14.882Z,9.16
2022-10-13T09:29:34.289Z,9.49
2022-10-13T09:32:50.692Z,9.78
2022-10-13T09:36:24.246Z,10.02
2022-10-13T09:39:41.880Z,10.29
2022-10-13T09:43:01.921Z,10.50
2022-10-13T09:46:28.698Z,10.83
2022-10-13T09:49:50.031Z,11.12
2022-10-13T09:53:23.508Z,11.27
2022-10-13T09:56:48.039Z,11.35
2022-10-13T10:00:13.077Z,11.57
2022-10-13T10:03:34.200Z,11.91
2022-10-13T10:06:52.975Z,11.93
2022-10-13T10:10:16.581Z,12.27
2022-10-13T10:13:35.259Z,12.54
2022-10-13T10:16:55.874Z,12.85
2022-10-13T10:20:25.155Z,13.00
2022-10-13T10:23:51.660Z,13.03
2022-10-13T10:27:13.405Z,13.03
2022-10-13T10:30:31.461Z,13.08
2022-10-13T10:33:54.236Z,13.16
2022-10-13T10:37:45.171Z,13.30
2022-10-13T10:41:08.250Z,13.44
2022-10-13T10:44:28.669Z,13.71
2022-10-13T10:47:48.711Z,13.79
2022-10-13T10:51:08.296Z,13.85
2022-10-13T10:54:35.984Z,13.96
2022-10-13T10:57:58.886Z,14.05
2022-10-13T11:01:25.554Z,14.10
2022-10-13T11:05:05.306Z,14.26
2022-10-13T11:08:38.727Z,14.31
2022-10-13T11:11:55.121Z,14.34
2022-10-13T11:15:18.506Z,14.29
2022-10-13T11:19:12.542Z,14.20
2022-10-13T11:22:31.623Z,14.07
2022-10-13T11:25:49.708Z,14.00
2022-10-13T11:29:07.358Z,13.92
2022-10-13T11:33:03.121Z,13.94
2022-10-13T11:37:01.335Z,14.01
2022-10-13T11:40:29.961Z,14.00
2022-10-13T11:43:54.469Z,14.03
2022-10-13T11:47:17.231Z,14.02
2022-10-13T11:50:43.047Z,14.05
2022-10-13T11:54:06.323Z,14.04
2022-10-13T11:57:32.970Z,14.04
2022-10-13T12:01:04.023Z,14.00
2022-10-13T12:04:30.823Z,14.00
2022-10-13T12:07:49.404Z,14.02
2022-10-13T12:11:09.326Z,14.03
2022-10-13T12:14:35.398Z,14.01
2022-10-13T12:17:54.034Z,13.99
2022-10-13T12:21:18.337Z,14.00
2022-10-13T12:24:38.030Z,14.05
2022-10-13T12:27:57.724Z,14.08
2022-10-13T12:31:22.496Z,14.10
2022-10-13T12:34:40.851Z,14.13
2022-10-13T12:37:58.432Z,14.11
2022-10-13T12:42:00.860Z,14.16
2022-10-13T12:45:32.187Z,14.18
2022-10-13T12:48:52.015Z,14.23
2022-10-13T12:52:16.903Z,14.24
2022-10-13T12:55:39.051Z,14.25
2022-10-13T12:58:55.332Z,14.23
2022-10-13T13:02:25.189Z,14.27
2022-10-13T13:05:51.636Z,14.30
2022-10-13T13:09:33.978Z,14.29
2022-10-13T13:12:52.325Z,14.29
2022-10-13T13:16:26.753Z,14.31
2022-10-13T13:19:44.815Z,14.36
2022-10-13T13:23:01.535Z,14.40
2022-10-13T13:26:22.796Z,14.39
2022-10-13T13:29:39.297Z,14.38
2022-10-13T13:32:56.869Z,14.39
2022-10-13T13:36:19.048Z,14.45
2022-10-13T13:39:36.093Z,14.48
2022-10-13T13:42:53.217Z,14.50
2022-10-13T13:46:09.426Z,14.48
2022-10-13T13:49:25.433Z,14.52
2022-10-13T13:52:42.532Z,14.50
2022-10-13T13:56:08.175Z,14.53
2022-10-13T13:59:24.682Z,14.54
2022-10-13T14:02:43.739Z,14.54
2022-10-13T14:06:03.011Z,14.57
2022-10-13T14:09:16.792Z,14.56
2022-10-13T14:12:34.439Z,14.56
2022-10-13T14:15:54.865Z,14.53
2022-10-13T14:19:11.512Z,14.53
2022-10-13T14:22:27.849Z,14.53
2022-10-13T14:25:45.544Z,14.52
2022-10-13T14:29:02.530Z,14.53
2022-10-13T14:32:19.329Z,14.54
2022-10-13T14:35:35.755Z,14.52
2022-10-13T14:38:52.614Z,14.54
2022-10-13T14:42:08.716Z,14.54
2022-10-13T14:45:25.604Z,14.54
2022-10-13T14:48:45.568Z,14.53
2022-10-13T14:52:01.984Z,14.53
2022-10-13T14:55:19.366Z,14.51
2022-10-13T14:58:37.850Z,14.50
2022-10-13T15:01:55.179Z,14.47
2022-10-13T15:05:17.541Z,14.46
2022-10-13T15:08:38.755Z,14.44
2022-10-13T15:11:58.276Z,14.44
2022-10-13T15:15:16.830Z,14.41
2022-10-13T15:18:33.303Z,14.37
2022-10-13T15:21:50.458Z,14.34
2022-10-13T15:25:10.376Z,14.30
2022-10-13T15:28:26.658Z,14.23
2022-10-13T15:31:43.240Z,14.19
2022-10-13T15:35:01.253Z,14.15
2022-10-13T15:38:19.450Z,14.12
2022-10-13T15:41:35.697Z,14.07
2022-10-13T15:45:08.812Z,14.02
2022-10-13T15:48:10.937Z,13.96
2022-10-13T15:51:31.037Z,13.91
2022-10-13T15:54:47.752Z,13.87
2022-10-13T15:58:03.950Z,13.82
2022-10-13T16:01:27.221Z,13.77
2022-10-13T16:04:43.694Z,13.72
2022-10-13T16:07:59.942Z,13.70
2022-10-13T16:11:20.802Z,13.67
2022-10-13T16:14:37.415Z,13.56
2022-10-13T16:18:01.309Z,13.35
2022-10-13T16:21:24.385Z,13.09
2022-10-13T16:24:40.733Z,12.94
2022-10-13T16:28:03.130Z,12.89
2022-10-13T16:31:22.489Z,12.97
2022-10-13T16:34:36.698Z,13.01
2022-10-13T16:37:57.237Z,12.83
2022-10-13T16:41:20.979Z,12.67
2022-10-13T16:44:40.465Z,12.51
2022-10-13T16:47:59.794Z,12.41
2022-10-13T16:51:22.252Z,12.48
2022-10-13T16:54:43.099Z,12.56
2022-10-13T16:57:59.638Z,12.60
2022-10-13T17:01:18.096Z,12.62
2022-10-13T17:04:39.629Z,12.62
2022-10-13T17:08:10.221Z,12.63
2022-10-13T17:11:30.723Z,12.63
2022-10-13T17:14:47.279Z,12.61
2022-10-13T17:18:05.092Z,12.59
2022-10-13T17:21:23.548Z,12.58
2022-10-13T17:24:41.974Z,12.49
2022-10-13T17:27:58.578Z,12.36
2022-10-13T17:31:18.037Z,12.04
2022-10-13T17:34:36.465Z,11.74
2022-10-13T17:37:59.009Z,11.55
2022-10-13T17:41:17.666Z,11.41
2022-10-13T17:44:39.789Z,11.29
2022-10-13T17:47:59.362Z,11.21
2022-10-13T17:51:22.013Z,11.10
2022-10-13T17:54:41.490Z,10.97
2022-10-13T17:58:00.646Z,10.93
2022-10-13T18:01:25.963Z,10.85
2022-10-13T18:04:43.770Z,10.75
2022-10-13T18:08:03.975Z,10.71
2022-10-13T18:11:24.665Z,10.77
2022-10-13T18:14:40.980Z,10.75
2022-10-13T18:17:57.352Z,10.70
2022-10-13T18:21:16.149Z,10.67
2022-10-13T18:24:34.207Z,10.65
2022-10-13T18:27:50.663Z,10.67
2022-10-13T18:31:14.241Z,10.74
2022-10-13T18:34:30.819Z,10.81
2022-10-13T18:37:50.290Z,10.74
2022-10-13T18:41:08.814Z,10.69
2022-10-13T18:44:25.869Z,10.52
2022-10-13T18:47:43.147Z,10.34
2022-10-13T18:50:59.937Z,10.22
2022-10-13T18:54:19.507Z,10.14
2022-10-13T18:57:36.004Z,10.29
2022-10-13T19:00:52.242Z,10.34
2022-10-13T19:04:13.735Z,10.41
2022-10-13T19:07:29.948Z,10.49
2022-10-13T19:10:49.731Z,10.55
2022-10-13T19:14:11.780Z,10.38
2022-10-13T19:17:28.037Z,10.19
2022-10-13T19:20:44.646Z,9.99
2022-10-13T19:24:05.223Z,9.86
2022-10-13T19:27:22.586Z,9.84
2022-10-13T19:30:40.793Z,9.74
2022-10-13T19:34:00.925Z,9.61
2022-10-13T19:37:17.643Z,9.47
2022-10-13T19:40:37.804Z,9.32
2022-10-13T19:43:53.619Z,9.20
2022-10-13T19:47:10.940Z,9.10
2022-10-13T19:50:27.184Z,8.98
2022-10-13T19:53:45.762Z,8.89
2022-10-13T19:57:02.507Z,8.82
2022-10-13T20:00:24.103Z,8.75
2022-10-13T20:03:41.066Z,8.74
2022-10-13T20:06:58.352Z,8.67
2022-10-13T20:10:15.974Z,8.60
2022-10-13T20:13:32.631Z,8.55
2022-10-13T20:16:50.626Z,8.48
2022-10-13T20:20:09.359Z,8.44
2022-10-13T20:23:25.387Z,8.40
2022-10-13T20:26:42.198Z,8.31
2022-10-13T20:29:59.117Z,8.24
2022-10-13T20:33:15.823Z,8.27
2022-10-13T20:36:38.309Z,8.20
2022-10-13T20:39:54.519Z,8.10
2022-10-13T20:43:10.698Z,8.01
2022-10-13T20:46:28.917Z,8.00
2022-10-13T20:49:45.084Z,7.96
2022-10-13T20:53:02.812Z,7.90
2022-10-13T20:56:24.101Z,7.91
2022-10-13T20:59:40.172Z,7.85
2022-10-13T21:03:01.918Z,7.76
2022-10-13T21:06:20.730Z,7.79
2022-10-13T21:09:37.020Z,7.76
2022-10-13T21:12:53.927Z,7.72
2022-10-13T21:16:16.579Z,7.72
2022-10-13T21:19:33.014Z,7.66
2022-10-13T21:22:49.232Z,7.64
2022-10-13T21:26:08.557Z,7.57
2022-10-13T21:29:25.131Z,7.55
2022-10-13T21:32:41.326Z,7.52
2022-10-13T21:35:57.473Z,7.51
2022-10-13T21:39:15.329Z,7.51
2022-10-13T21:42:34.563Z,7.45
2022-10-13T21:45:54.083Z,7.40
2022-10-13T21:49:13.039Z,7.36
2022-10-13T21:52:31.576Z,7.34
2022-10-13T21:55:47.703Z,7.32
2022-10-13T21:59:05.240Z,7.31
2022-10-13T22:02:21.485Z,7.29
2022-10-13T22:05:37.798Z,7.28
2022-10-13T22:08:58.822Z,7.33
2022-10-13T22:12:15.685Z,7.33
2022-10-13T22:15:31.801Z,7.41
2022-10-13T22:18:48.352Z,7.43
2022-10-13T22:22:04.824Z,7.52
2022-10-13T22:25:21.108Z,7.59
2022-10-13T22:28:38.522Z,7.67
2022-10-13T22:31:54.852Z,7.72
2022-10-13T22:35:11.530Z,7.76
2022-10-13T22:38:27.962Z,7.80
2022-10-13T22:41:46.128Z,7.87
2022-10-13T22:45:02.213Z,7.93
2022-10-13T22:48:21.203Z,7.92
2022-10-13T22:51:42.536Z,8.00
2022-10-13T22:54:59.017Z,8.03
2022-10-13T22:58:15.640Z,8.03
2022-10-13T23:01:33.307Z,8.06
2022-10-13T23:04:49.538Z,8.08
2022-10-13T23:08:06.805Z,8.14
2022-10-13T23:11:24.079Z,8.17
2022-10-13T23:14:40.583Z,8.17
2022-10-13T23:17:57.657Z,8.23
2022-10-13T23:21:17.094Z,8.27
2022-10-13T23:24:33.280Z,8.30
2022-10-13T23:27:49.492Z,8.29
2022-10-13T23:31:09.274Z,8.32
2022-10-13T23:34:26.222Z,8.36
2022-10-13T23:37:42.808Z,8.42
2022-10-13T23:40:59.567Z,8.50
2022-10-13T23:44:18.004Z,8.48
2022-10-13T23:47:34.490Z,8.53
2022-10-13T23:50:50.578Z,8.48
2022-10-13T23:54:08.213Z,8.40
2022-10-13T23:57:24.379Z,8.35
